createdAt,value
2022-08-03T00:03:58.568Z,100055.56
2022-08-03T00:09:27.269Z,100068.56
2022-08-03T00:15:10.478Z,100065.91
2022-08-03T00:20:41.857Z,100056.59
2022-08-03T00:26:11.465Z,100048.63
2022-08-03T00:31:52.208Z,100062.31
2022-08-03T00:37:24.056Z,100074.31
2022-08-03T00:43:10.717Z,100068.44
2022-08-03T00:48:40.137Z,100068.84
2022-08-03T00:54:11.035Z,100078.16
2022-08-03T00:59:39.947Z,100070.41
2022-08-03T01:05:10.754Z,100068.75
2022-08-03T01:10:54.306Z,100069.06
2022-08-03T01:16:37.091Z,100074.59
2022-08-03T01:22:19.301Z,100069.47
2022-08-03T01:28:07.613Z,100070.88
2022-08-03T01:33:40.466Z,100064.34
2022-08-03T01:39:11.533Z,100053.56
2022-08-03T01:44:42.870Z,100061.84
2022-08-03T01:50:15.344Z,100059.38
2022-08-03T01:55:53.574Z,100064.16
2022-08-03T02:01:23.749Z,100057.94
2022-08-03T02:07:01.911Z,100058.41
2022-08-03T02:12:34.411Z,100066.22
2022-08-03T02:18:06.314Z,100063.63
2022-08-03T02:23:36.465Z,100067.63
2022-08-03T02:29:12.494Z,100066.59
2022-08-03T02:34:43.191Z,100054.19
2022-08-03T02:40:14.996Z,100057.69
2022-08-03T02:45:46.970Z,100053.22
2022-08-03T02:51:18.191Z,100047.16
2022-08-03T02:56:49.732Z,100051.50
2022-08-03T03:02:20.082Z,100057.47
2022-08-03T03:07:51.667Z,100051.31
2022-08-03T03:13:23.449Z,100053.00
2022-08-03T03:18:52.707Z,100057.38
2022-08-03T03:24:22.810Z,100062.13
2022-08-03T03:29:53.612Z,100068.16
2022-08-03T03:35:22.707Z,100061.31
2022-08-03T03:40:52.372Z,100055.34
2022-08-03T03:46:22.868Z,100052.16
2022-08-03T03:51:54.998Z,100064.00
2022-08-03T03:57:24.163Z,100060.94
2022-08-03T04:02:54.428Z,100062.72
2022-08-03T04:08:40.599Z,100055.75
2022-08-03T04:14:13.426Z,100069.34
2022-08-03T04:19:46.387Z,100065.47
2022-08-03T04:25:19.557Z,100059.16
2022-08-03T04:30:50.989Z,100056.91
2022-08-03T04:36:24.723Z,100059.31
2022-08-03T04:42:06.936Z,100059.63
2022-08-03T04:47:39.180Z,100058.94
2022-08-03T04:53:09.880Z,100066.81
2022-08-03T04:58:39.235Z,100070.09
2022-08-03T05:04:07.594Z,100078.88
2022-08-03T05:09:50.081Z,100081.59
2022-08-03T05:15:22.138Z,100081.72
2022-08-03T05:20:51.812Z,100080.78
2022-08-03T05:26:22.763Z,100071.78
2022-08-03T05:31:52.345Z,100072.16
2022-08-03T05:37:21.603Z,100075.66
2022-08-03T05:42:52.609Z,100083.69
2022-08-03T05:48:22.477Z,100095.94
2022-08-03T05:53:51.416Z,100101.81
2022-08-03T05:59:37.517Z,100104.28
2022-08-03T06:05:08.704Z,100110.19
2022-08-03T06:10:38.531Z,100115.28
2022-08-03T06:16:09.688Z,100121.50
2022-08-03T06:21:38.876Z,100116.44
2022-08-03T06:27:09.501Z,100119.22
2022-08-03T06:32:39.896Z,100110.06
2022-08-03T06:38:09.021Z,100120.66
2022-08-03T06:44:03.097Z,100128.31
2022-08-03T06:49:28.896Z,100132.13
2022-08-03T06:54:58.416Z,100141.13
2022-08-03T07:00:28.120Z,100133.34
2022-08-03T07:05:58.300Z,100126.97
2022-08-03T07:11:26.852Z,100131.22
2022-08-03T07:16:56.226Z,100122.69
2022-08-03T07:22:26.652Z,100129.00
2022-08-03T07:27:56.354Z,100124.47
2022-08-03T07:33:24.916Z,100126.06
2022-08-03T07:38:55.762Z,100121.78
2022-08-03T07:44:24.873Z,100121.50
2022-08-03T07:49:54.219Z,100131.44
2022-08-03T07:55:26.343Z,100139.78
2022-08-03T08:00:55.295Z,100136.63
2022-08-03T08:06:24.040Z,100131.50
2022-08-03T08:11:55.322Z,100142.91
2022-08-03T08:17:24.103Z,100147.44
2022-08-03T08:22:53.036Z,100145.59
2022-08-03T08:28:32.699Z,100142.56
2022-08-03T08:34:05.612Z,100147.19
2022-08-03T08:39:35.005Z,100154.91
2022-08-03T08:45:08.502Z,100163.75
2022-08-03T08:50:39.934Z,100170.88
2022-08-03T08:56:10.434Z,100162.94
2022-08-03T09:01:40.455Z,100167.31
2022-08-03T09:07:20.090Z,100159.16
2022-08-03T09:12:57.953Z,100157.78
2022-08-03T09:18:32.422Z,100164.09
2022-08-03T09:24:05.643Z,100163.44
2022-08-03T09:29:35.212Z,100172.50
2022-08-03T09:35:06.525Z,100173.59
2022-08-03T09:40:38.168Z,100189.78
2022-08-03T09:46:08.523Z,100194.59
2022-08-03T09:52:32.153Z,100190.94
2022-08-03T09:57:30.821Z,100204.56
2022-08-03T10:03:05.854Z,100202.03
2022-08-03T10:08:36.396Z,100196.09
2022-08-03T10:14:07.259Z,100201.91
2022-08-03T10:19:36.541Z,100217.13
2022-08-03T10:25:10.210Z,100214.56
2022-08-03T10:30:42.537Z,100210.38
2022-08-03T10:36:14.711Z,100214.41
2022-08-03T10:41:48.194Z,100223.91
2022-08-03T10:47:17.457Z,100231.13
2022-08-03T10:52:57.674Z,100228.91
2022-08-03T10:58:56.832Z,100223.63
2022-08-03T11:04:27.314Z,100223.19
2022-08-03T11:09:57.467Z,100219.41
2022-08-03T11:15:34.925Z,100235.63
2022-08-03T11:21:04.061Z,100252.84
2022-08-03T11:26:33.053Z,100252.63
2022-08-03T11:32:03.330Z,100253.72
2022-08-03T11:37:33.441Z,100239.25
2022-08-03T11:43:04.072Z,100239.41
2022-08-03T11:48:40.241Z,100227.31
2022-08-03T11:54:09.327Z,100220.72
2022-08-03T11:59:39.186Z,100216.94
2022-08-03T12:05:09.647Z,100202.13
2022-08-03T12:10:40.408Z,100208.75
2022-08-03T12:16:10.343Z,100184.22
2022-08-03T12:21:56.723Z,100179.22
2022-08-03T12:27:29.769Z,100168.44
2022-08-03T12:32:59.032Z,100174.25
2022-08-03T12:38:29.695Z,100169.88
2022-08-03T12:44:00.198Z,100164.91
2022-08-03T12:49:30.494Z,100155.00
2022-08-03T12:55:02.143Z,100166.38
2022-08-03T13:00:31.164Z,100167.19
2022-08-03T13:06:01.243Z,100153.31
2022-08-03T13:11:58.041Z,100146.50
2022-08-03T13:17:22.066Z,100138.59
2022-08-03T13:22:51.741Z,100140.66
2022-08-03T13:28:22.436Z,100149.44
2022-08-03T13:33:51.804Z,100144.34
2022-08-03T13:39:21.254Z,100155.25
2022-08-03T13:45:05.437Z,100175.81
2022-08-03T13:50:37.567Z,100189.84
2022-08-03T13:56:10.154Z,100209.06
2022-08-03T14:01:54.792Z,100208.78
2022-08-03T14:07:24.834Z,100238.84
2022-08-03T14:12:54.112Z,100255.72
2022-08-03T14:18:29.274Z,100251.13
2022-08-03T14:24:03.121Z,100260.28
2022-08-03T14:29:32.124Z,100248.56
2022-08-03T14:35:02.917Z,100254.63
2022-08-03T14:40:31.772Z,100242.31
2022-08-03T14:46:01.182Z,100234.19
2022-08-03T14:51:31.779Z,100223.03
2022-08-03T14:57:00.953Z,100217.44
2022-08-03T15:02:30.500Z,100211.03
2022-08-03T15:08:01.927Z,100198.88
2022-08-03T15:13:31.713Z,100207.06
2022-08-03T15:19:01.515Z,100201.97
2022-08-03T15:24:35.367Z,100212.88
2022-08-03T15:30:09.912Z,100223.78
2022-08-03T15:35:39.900Z,100232.97
2022-08-03T15:41:13.715Z,100213.31
2022-08-03T15:46:42.719Z,100223.59
2022-08-03T15:52:11.952Z,100224.78
2022-08-03T15:58:59.573Z,100228.88
2022-08-03T16:03:34.469Z,100238.53
2022-08-03T16:09:23.145Z,100237.53
2022-08-03T16:14:55.446Z,100241.47
2022-08-03T16:20:29.077Z,100227.91
2022-08-03T16:26:06.222Z,100238.03
2022-08-03T16:31:39.616Z,100241.09
2022-08-03T16:37:38.110Z,100240.09
2022-08-03T16:43:18.140Z,100257.09
2022-08-03T16:48:49.047Z,100266.56
2022-08-03T16:54:18.780Z,100268.16
2022-08-03T16:59:50.010Z,100269.44
2022-08-03T17:05:21.634Z,100268.72
2022-08-03T17:10:52.822Z,100276.19
2022-08-03T17:16:21.911Z,100283.84
2022-08-03T17:22:01.435Z,100288.41
2022-08-03T17:28:48.702Z,100294.88
2022-08-03T17:33:22.597Z,100291.75
2022-08-03T17:38:54.941Z,100310.81
2022-08-03T17:44:31.049Z,100317.28
2022-08-03T17:50:24.676Z,100316.47
2022-08-03T17:56:38.540Z,100317.53
2022-08-03T18:02:30.299Z,100317.78
2022-08-03T18:08:06.821Z,100318.31
2022-08-03T18:13:42.232Z,100332.59
2022-08-03T18:20:03.428Z,100337.16
2022-08-03T18:25:15.147Z,100340.75
2022-08-03T18:30:53.955Z,100329.97
2022-08-03T18:36:30.299Z,100326.50
2022-08-03T18:42:02.645Z,100328.22
2022-08-03T18:47:55.425Z,100329.41
2022-08-03T18:54:02.364Z,100326.34
2022-08-03T18:59:30.561Z,100332.19
2022-08-03T19:05:06.556Z,100335.16
2022-08-03T19:10:39.121Z,100327.16
2022-08-03T19:16:13.372Z,100329.81
2022-08-03T19:21:49.942Z,100328.56
2022-08-03T19:33:12.920Z,100322.81
2022-08-03T19:38:44.059Z,100326.09
2022-08-03T19:44:20.498Z,100323.44
2022-08-03T19:50:06.201Z,100319.72
2022-08-03T19:55:48.973Z,100319.22
2022-08-03T20:01:21.563Z,100309.00
2022-08-03T20:06:52.166Z,100317.38
2022-08-03T20:18:14.754Z,100327.91
2022-08-03T20:30:06.098Z,100326.19
2022-08-03T20:35:31.825Z,100316.50
2022-08-03T20:41:00.549Z,100314.66
2022-08-03T20:46:46.445Z,100313.22
2022-08-03T20:52:20.252Z,100309.19
2022-08-03T20:57:56.622Z,100318.78
2022-08-03T21:03:40.866Z,100326.75
2022-08-03T21:09:20.758Z,100329.59
2022-08-03T21:13:03.678Z,100316.75
2022-08-03T21:13:06.785Z,100322.38
2022-08-03T21:13:12.763Z,100331.25
2022-08-03T21:15:00.274Z,100334.13
2022-08-03T21:20:34.735Z,100332.94
2022-08-03T21:26:04.243Z,100325.16
2022-08-03T21:31:33.836Z,100319.00
2022-08-03T21:37:04.260Z,100320.13
2022-08-03T21:42:33.822Z,100328.44
2022-08-03T21:48:04.941Z,100326.78
2022-08-03T21:54:02.216Z,100316.50
2022-08-03T21:59:26.842Z,100334.13
2022-08-03T22:04:57.467Z,100336.81
2022-08-03T22:10:28.816Z,100336.81
2022-08-03T22:15:58.694Z,100337.44
2022-08-03T22:21:36.190Z,100342.72
2022-08-03T22:27:24.977Z,100358.28
2022-08-03T22:32:56.201Z,100345.97
2022-08-03T22:38:28.109Z,100353.72
2022-08-03T22:43:59.655Z,100354.34
2022-08-03T22:49:34.662Z,100359.63
2022-08-03T22:55:05.127Z,100363.22
2022-08-03T23:00:35.132Z,100360.00
2022-08-03T23:06:04.666Z,100353.44
2022-08-03T23:11:37.957Z,100351.50
2022-08-03T23:17:15.368Z,100357.31
2022-08-03T23:22:45.648Z,100351.28
2022-08-03T23:28:17.336Z,100355.16
2022-08-03T23:34:16.392Z,100346.41
2022-08-03T23:39:48.158Z,100357.22
2022-08-03T23:45:19.498Z,100351.94
2022-08-03T23:50:58.423Z,100341.47
2022-08-03T23:56:39.360Z,100351.00
